createdAt,value
2022-12-31T00:01:26.631Z,96.60
2022-12-31T00:03:54.453Z,96.75
2022-12-31T00:06:28.077Z,97.08
2022-12-31T00:08:56.100Z,97.09
2022-12-31T00:11:24.545Z,96.68
2022-12-31T00:13:51.462Z,96.75
2022-12-31T00:16:26.911Z,96.77
2022-12-31T00:18:55.284Z,97.15
2022-12-31T00:21:22.529Z,97.01
2022-12-31T00:23:49.115Z,96.99
2022-12-31T00:26:21.144Z,96.81
2022-12-31T00:28:48.422Z,97.01
2022-12-31T00:31:17.923Z,96.97
2022-12-31T00:33:44.431Z,97.15
2022-12-31T00:36:16.825Z,96.88
2022-12-31T00:38:44.824Z,97.07
2022-12-31T00:41:11.828Z,96.89
2022-12-31T00:43:38.522Z,96.79
2022-12-31T00:46:06.301Z,97.19
2022-12-31T00:48:33.808Z,96.94
2022-12-31T00:51:01.729Z,96.86
2022-12-31T00:53:28.426Z,96.78
2022-12-31T00:56:05.901Z,96.85
2022-12-31T00:58:33.328Z,97.04
2022-12-31T01:01:08.805Z,96.68
2022-12-31T01:03:35.403Z,96.75
2022-12-31T01:06:01.768Z,96.68
2022-12-31T01:08:28.098Z,96.98
2022-12-31T01:11:12.849Z,96.53
2022-12-31T01:13:39.167Z,96.69
2022-12-31T01:16:13.263Z,96.73
2022-12-31T01:18:40.194Z,96.57
2022-12-31T01:21:08.472Z,96.65
2022-12-31T01:23:34.910Z,97.02
2022-12-31T01:26:04.260Z,96.49
2022-12-31T01:28:31.435Z,96.50
2022-12-31T01:30:58.399Z,96.64
2022-12-31T01:33:24.854Z,96.69
2022-12-31T01:35:51.165Z,96.47
2022-12-31T01:38:17.598Z,96.46
2022-12-31T01:40:43.949Z,96.37
2022-12-31T01:43:19.139Z,96.64
2022-12-31T01:45:48.140Z,96.44
2022-12-31T01:48:20.864Z,96.68
2022-12-31T01:50:48.368Z,96.71
2022-12-31T01:53:16.811Z,96.66
2022-12-31T01:55:55.681Z,96.36
2022-12-31T01:58:27.810Z,96.65
2022-12-31T02:00:55.056Z,96.47
2022-12-31T02:03:22.965Z,96.49
2022-12-31T02:06:07.469Z,96.48
2022-12-31T02:08:41.819Z,96.52
2022-12-31T02:11:28.655Z,96.49
2022-12-31T02:13:58.954Z,96.66
2022-12-31T02:16:34.381Z,96.54
2022-12-31T02:19:31.708Z,96.67
2022-12-31T02:22:16.736Z,96.95
2022-12-31T02:25:02.077Z,96.65
2022-12-31T02:28:00.824Z,96.54
2022-12-31T02:30:32.464Z,96.61
2022-12-31T02:33:16.659Z,96.87
2022-12-31T02:35:51.477Z,96.72
2022-12-31T02:38:25.310Z,96.70
2022-12-31T02:40:54.166Z,96.57
2022-12-31T02:43:20.527Z,96.62
2022-12-31T02:45:56.664Z,96.56
2022-12-31T02:48:44.001Z,96.72
2022-12-31T02:51:34.108Z,96.65
2022-12-31T02:54:25.281Z,96.63
2022-12-31T02:57:06.463Z,96.40
2022-12-31T03:00:20.003Z,96.70
2022-12-31T03:02:48.239Z,96.57
2022-12-31T03:05:17.945Z,96.56
2022-12-31T03:07:45.253Z,96.70
2022-12-31T03:10:11.898Z,96.74
2022-12-31T03:12:48.513Z,96.76
2022-12-31T03:15:22.681Z,96.43
2022-12-31T03:17:56.140Z,96.70
2022-12-31T03:20:45.887Z,96.61
2022-12-31T03:23:14.808Z,96.51
2022-12-31T03:25:41.117Z,96.48
2022-12-31T03:28:10.508Z,96.69
2022-12-31T03:30:39.135Z,96.52
2022-12-31T03:33:06.812Z,96.86
2022-12-31T03:35:35.489Z,96.35
2022-12-31T03:38:02.752Z,96.44
2022-12-31T03:40:31.057Z,96.39
2022-12-31T03:42:57.763Z,96.46
2022-12-31T03:45:24.662Z,96.88
2022-12-31T03:47:51.084Z,96.73
2022-12-31T03:50:18.603Z,96.59
2022-12-31T03:52:45.241Z,96.76
2022-12-31T03:55:12.753Z,96.50
2022-12-31T03:57:39.796Z,96.75
2022-12-31T04:00:09.088Z,96.41
2022-12-31T04:02:35.721Z,96.43
2022-12-31T04:05:02.121Z,96.58
2022-12-31T04:07:28.470Z,96.58
2022-12-31T04:09:54.814Z,96.63
2022-12-31T04:12:21.347Z,96.66
2022-12-31T04:14:47.673Z,96.69
2022-12-31T04:17:13.989Z,96.37
2022-12-31T04:19:41.133Z,96.78
2022-12-31T04:22:07.652Z,96.57
2022-12-31T04:24:33.989Z,96.47
2022-12-31T04:27:07.048Z,96.39
2022-12-31T04:29:34.261Z,96.48
2022-12-31T04:32:00.961Z,96.28
2022-12-31T04:34:27.433Z,96.52
2022-12-31T04:36:53.766Z,96.61
2022-12-31T04:39:20.153Z,96.57
2022-12-31T04:41:46.464Z,96.71
2022-12-31T04:44:12.985Z,96.42
2022-12-31T04:46:39.543Z,96.55
2022-12-31T04:49:05.884Z,96.91
2022-12-31T04:51:32.296Z,96.57
2022-12-31T04:53:59.264Z,96.75
2022-12-31T04:56:26.318Z,96.96
2022-12-31T04:58:52.675Z,96.72
2022-12-31T05:01:19.440Z,96.94
2022-12-31T05:03:45.958Z,96.87
2022-12-31T05:06:15.389Z,96.88
2022-12-31T05:08:42.643Z,96.89
2022-12-31T05:11:09.252Z,96.89
2022-12-31T05:13:35.645Z,96.98
2022-12-31T05:16:03.059Z,97.02
2022-12-31T05:18:30.247Z,96.94
2022-12-31T05:20:56.772Z,97.22
2022-12-31T05:23:23.398Z,97.10
2022-12-31T05:25:50.039Z,97.20
2022-12-31T05:28:16.693Z,97.17
2022-12-31T05:30:44.077Z,97.63
2022-12-31T05:33:10.628Z,97.36
2022-12-31T05:35:37.160Z,97.49
2022-12-31T05:38:03.766Z,97.57
2022-12-31T05:40:30.116Z,97.66
2022-12-31T05:42:56.513Z,97.75
2022-12-31T05:45:30.089Z,97.79
2022-12-31T05:47:57.237Z,97.97
2022-12-31T05:50:23.579Z,98.01
2022-12-31T05:52:49.944Z,97.98
2022-12-31T05:55:16.341Z,98.00
2022-12-31T05:57:42.699Z,97.75
2022-12-31T06:00:10.293Z,98.07
2022-12-31T06:02:36.797Z,98.29
2022-12-31T06:05:03.584Z,97.95
2022-12-31T06:07:29.922Z,98.02
2022-12-31T06:09:56.270Z,98.26
2022-12-31T06:12:22.683Z,98.10
2022-12-31T06:14:49.014Z,98.04
2022-12-31T06:17:15.349Z,98.31
2022-12-31T06:19:41.869Z,97.91
2022-12-31T06:22:08.214Z,98.14
2022-12-31T06:24:34.547Z,98.02
2022-12-31T06:27:00.889Z,98.36
2022-12-31T06:29:27.193Z,98.40
2022-12-31T06:31:53.516Z,98.36
2022-12-31T06:34:19.913Z,98.33
2022-12-31T06:36:46.335Z,98.34
2022-12-31T06:39:12.670Z,98.23
2022-12-31T06:41:39.069Z,98.44
2022-12-31T06:44:05.606Z,98.22
2022-12-31T06:46:31.964Z,98.45
2022-12-31T06:48:58.388Z,98.24
2022-12-31T06:51:24.725Z,98.30
2022-12-31T06:53:51.475Z,98.63
2022-12-31T06:56:23.396Z,98.38
2022-12-31T06:58:53.261Z,98.47
2022-12-31T07:01:51.039Z,98.69
2022-12-31T07:04:26.642Z,98.75
2022-12-31T07:07:06.094Z,98.56
2022-12-31T07:10:01.693Z,98.57
2022-12-31T07:12:48.264Z,98.87
2022-12-31T07:15:34.863Z,98.99
2022-12-31T07:18:18.255Z,98.52
2022-12-31T07:20:44.850Z,98.71
2022-12-31T07:23:11.421Z,98.63
2022-12-31T07:25:43.717Z,98.78
2022-12-31T07:28:53.243Z,98.45
2022-12-31T07:31:50.669Z,98.57
2022-12-31T07:34:29.213Z,98.91
2022-12-31T07:37:07.254Z,99.11
2022-12-31T07:40:00.767Z,99.04
2022-12-31T07:42:37.805Z,99.06
2022-12-31T07:45:20.489Z,98.88
2022-12-31T07:47:47.126Z,98.95
2022-12-31T07:50:16.147Z,98.99
2022-12-31T07:52:43.647Z,98.75
2022-12-31T07:55:11.007Z,98.97
2022-12-31T07:57:49.353Z,98.56
2022-12-31T08:00:16.233Z,98.66
2022-12-31T08:03:05.492Z,98.85
2022-12-31T08:05:47.174Z,99.16
2022-12-31T08:08:23.558Z,98.94
2022-12-31T08:11:05.022Z,99.05
2022-12-31T08:13:32.091Z,98.48
2022-12-31T08:15:59.833Z,98.84
2022-12-31T08:18:27.794Z,98.80
2022-12-31T08:21:07.154Z,98.54
2022-12-31T08:23:57.516Z,98.52
2022-12-31T08:26:36.273Z,98.55
2022-12-31T08:29:32.036Z,98.30
2022-12-31T08:32:10.276Z,98.41
2022-12-31T08:34:42.602Z,98.69
2022-12-31T08:37:16.386Z,98.32
2022-12-31T08:39:59.121Z,98.22
2022-12-31T08:43:16.896Z,98.46
2022-12-31T08:45:48.868Z,98.02
2022-12-31T08:48:37.391Z,98.24
2022-12-31T08:51:04.553Z,98.49
2022-12-31T08:53:31.185Z,98.52
2022-12-31T08:56:10.930Z,98.47
2022-12-31T08:58:53.554Z,98.03
2022-12-31T09:01:24.822Z,97.84
2022-12-31T09:04:01.017Z,98.18
2022-12-31T09:06:42.177Z,97.94
2022-12-31T09:09:37.285Z,98.05
2022-12-31T09:12:18.860Z,98.07
2022-12-31T09:14:47.425Z,97.79
2022-12-31T09:17:30.071Z,97.79
2022-12-31T09:19:56.835Z,97.72
2022-12-31T09:22:23.600Z,97.87
2022-12-31T09:24:50.293Z,97.78
2022-12-31T09:27:25.591Z,97.57
2022-12-31T09:30:21.670Z,97.89
2022-12-31T09:33:10.120Z,97.78
2022-12-31T09:35:49.872Z,97.40
2022-12-31T09:38:36.191Z,97.48
2022-12-31T09:41:14.416Z,97.39
2022-12-31T09:43:59.022Z,97.73
2022-12-31T09:47:02.974Z,97.54
2022-12-31T09:49:55.152Z,97.50
2022-12-31T09:52:49.360Z,97.19
2022-12-31T09:55:37.084Z,97.13
2022-12-31T09:58:37.706Z,97.25
2022-12-31T10:01:18.833Z,96.85
2022-12-31T10:04:03.939Z,97.18
2022-12-31T10:07:03.666Z,96.76
2022-12-31T10:09:51.610Z,96.78
2022-12-31T10:12:34.961Z,96.62
2022-12-31T10:15:22.585Z,96.81
2022-12-31T10:18:04.025Z,96.09
2022-12-31T10:20:57.775Z,96.15
2022-12-31T10:23:50.078Z,95.72
2022-12-31T10:26:37.784Z,95.83
2022-12-31T10:29:34.109Z,95.79
2022-12-31T10:32:15.743Z,95.71
2022-12-31T10:34:51.035Z,95.32
2022-12-31T10:37:19.599Z,95.27
2022-12-31T10:40:04.309Z,95.47
2022-12-31T10:43:01.970Z,95.51
2022-12-31T10:45:44.096Z,95.12
2022-12-31T10:48:47.978Z,94.87
2022-12-31T10:51:38.102Z,94.86
2022-12-31T10:54:26.298Z,94.70
2022-12-31T10:57:17.478Z,94.48
2022-12-31T10:59:58.904Z,94.42
2022-12-31T11:02:40.537Z,94.38
2022-12-31T11:05:32.781Z,94.53
2022-12-31T11:08:16.402Z,94.64
2022-12-31T11:10:58.568Z,95.06
2022-12-31T11:13:43.677Z,94.91
2022-12-31T11:16:33.347Z,95.18
2022-12-31T11:19:18.973Z,95.28
2022-12-31T11:21:57.436Z,95.31
2022-12-31T11:24:57.748Z,95.20
2022-12-31T11:27:49.532Z,95.44
2022-12-31T11:30:38.009Z,95.59
2022-12-31T11:33:29.162Z,95.65
2022-12-31T11:36:32.624Z,95.70
2022-12-31T11:39:30.807Z,96.13
2022-12-31T11:42:11.533Z,96.26
2022-12-31T11:44:47.343Z,95.54
2022-12-31T11:48:27.910Z,95.67
2022-12-31T11:51:15.956Z,95.48
2022-12-31T11:54:01.197Z,95.17
2022-12-31T11:56:35.333Z,94.76
2022-12-31T11:59:07.712Z,94.41
2022-12-31T12:01:39.216Z,94.62
2022-12-31T12:04:05.593Z,93.84
2022-12-31T12:06:32.863Z,94.00
2022-12-31T12:09:16.697Z,94.03
2022-12-31T12:11:43.182Z,93.71
2022-12-31T12:14:31.375Z,93.34
2022-12-31T12:17:04.336Z,93.27
2022-12-31T12:19:34.063Z,93.45
2022-12-31T12:22:10.968Z,93.25
2022-12-31T12:24:37.693Z,92.92
2022-12-31T12:27:04.149Z,93.02
2022-12-31T12:29:35.196Z,92.88
2022-12-31T12:32:03.171Z,92.52
2022-12-31T12:34:32.166Z,92.50
2022-12-31T12:36:59.004Z,92.45
2022-12-31T12:39:28.021Z,92.46
2022-12-31T12:42:04.680Z,92.42
2022-12-31T12:44:32.046Z,91.90
2022-12-31T12:46:59.377Z,91.61
2022-12-31T12:49:29.352Z,91.90
2022-12-31T12:52:04.575Z,91.98
2022-12-31T12:54:50.877Z,92.00
2022-12-31T12:57:37.560Z,92.26
2022-12-31T13:00:19.717Z,92.34
2022-12-31T13:03:18.416Z,91.97
2022-12-31T13:06:28.012Z,91.97
2022-12-31T13:09:16.458Z,91.45
2022-12-31T13:12:03.909Z,91.25
2022-12-31T13:14:48.055Z,91.25
2022-12-31T13:17:32.611Z,91.28
2022-12-31T13:20:12.291Z,91.33
2022-12-31T13:22:58.502Z,91.33
2022-12-31T13:25:45.824Z,91.68
2022-12-31T13:28:16.334Z,91.56
2022-12-31T13:30:45.721Z,91.78
2022-12-31T13:33:20.346Z,91.48
2022-12-31T13:35:54.108Z,92.01
2022-12-31T13:38:28.564Z,91.65
2022-12-31T13:41:01.057Z,92.06
2022-12-31T13:43:56.548Z,92.33
2022-12-31T13:46:51.301Z,92.30
2022-12-31T13:49:31.450Z,92.61
2022-12-31T13:52:07.002Z,92.37
2022-12-31T13:54:53.354Z,92.27
2022-12-31T13:57:33.710Z,92.51
2022-12-31T14:00:03.293Z,92.80
2022-12-31T14:02:44.029Z,92.32
2022-12-31T14:05:19.467Z,92.26
2022-12-31T14:07:57.011Z,92.00
2022-12-31T14:10:36.312Z,91.88
2022-12-31T14:13:11.007Z,92.32
2022-12-31T14:15:49.036Z,91.90
2022-12-31T14:18:27.026Z,91.38
2022-12-31T14:21:23.457Z,90.93
2022-12-31T14:23:59.360Z,91.06
2022-12-31T14:26:33.113Z,90.59
2022-12-31T14:29:30.000Z,90.97
2022-12-31T14:32:16.097Z,90.54
2022-12-31T14:35:17.107Z,91.19
2022-12-31T14:37:59.033Z,91.22
2022-12-31T14:40:54.015Z,90.95
2022-12-31T14:43:57.031Z,91.19
2022-12-31T14:46:56.258Z,90.45
2022-12-31T14:49:31.303Z,90.65
2022-12-31T14:52:19.285Z,90.15
2022-12-31T14:54:45.600Z,89.46
2022-12-31T14:57:18.028Z,89.95
2022-12-31T14:59:58.175Z,89.68
2022-12-31T15:02:31.214Z,89.61
2022-12-31T15:05:12.779Z,90.08
2022-12-31T15:07:48.423Z,89.83
2022-12-31T15:10:36.294Z,89.67
2022-12-31T15:13:07.605Z,89.46
2022-12-31T15:16:17.755Z,89.66
2022-12-31T15:19:16.903Z,89.21
2022-12-31T15:22:03.809Z,89.47
2022-12-31T15:24:30.803Z,88.73
2022-12-31T15:27:05.989Z,88.19
2022-12-31T15:29:35.857Z,87.48
2022-12-31T15:32:04.913Z,87.17
2022-12-31T15:34:35.461Z,86.78
2022-12-31T15:37:26.111Z,86.48
2022-12-31T15:40:03.700Z,86.27
2022-12-31T15:42:49.815Z,86.11
2022-12-31T15:45:54.869Z,85.74
2022-12-31T15:48:27.252Z,84.93
2022-12-31T15:50:57.953Z,84.39
2022-12-31T15:53:34.147Z,84.34
2022-12-31T15:56:02.234Z,83.80
2022-12-31T15:58:37.310Z,83.70
2022-12-31T16:01:19.323Z,83.37
2022-12-31T16:03:58.314Z,83.59
2022-12-31T16:06:27.506Z,83.07
2022-12-31T16:08:55.435Z,82.96
2022-12-31T16:11:23.117Z,82.12
2022-12-31T16:13:52.465Z,82.39
2022-12-31T16:16:23.399Z,82.21
2022-12-31T16:18:50.489Z,81.94
2022-12-31T16:21:27.602Z,81.82
2022-12-31T16:23:57.393Z,81.81
2022-12-31T16:26:28.489Z,82.20
2022-12-31T16:29:00.649Z,81.56
2022-12-31T16:31:29.017Z,81.34
2022-12-31T16:34:10.894Z,81.69
2022-12-31T16:36:37.276Z,80.87
2022-12-31T16:39:23.246Z,81.47
2022-12-31T16:41:51.029Z,80.72
2022-12-31T16:44:28.158Z,80.62
2022-12-31T16:47:00.550Z,80.19
2022-12-31T16:49:30.382Z,80.42
2022-12-31T16:52:03.063Z,80.62
2022-12-31T16:54:32.408Z,79.87
2022-12-31T16:56:59.664Z,79.47
2022-12-31T16:59:36.351Z,79.31
2022-12-31T17:02:10.380Z,79.41
2022-12-31T17:04:43.146Z,79.41
2022-12-31T17:07:39.770Z,79.63
2022-12-31T17:10:09.099Z,79.39
2022-12-31T17:13:24.989Z,78.90
2022-12-31T17:15:48.551Z,79.48
2022-12-31T17:18:19.911Z,78.79
2022-12-31T17:20:46.739Z,78.82
2022-12-31T17:23:23.221Z,78.90
2022-12-31T17:25:56.731Z,78.37
2022-12-31T17:28:25.044Z,78.14
2022-12-31T17:30:51.835Z,77.95
2022-12-31T17:33:21.192Z,77.66
2022-12-31T17:35:49.251Z,78.09
2022-12-31T17:38:21.329Z,78.08
2022-12-31T17:41:06.027Z,78.06
2022-12-31T17:43:35.618Z,77.63
2022-12-31T17:46:03.602Z,77.29
2022-12-31T17:48:29.988Z,77.95
2022-12-31T17:50:58.692Z,77.28
2022-12-31T17:53:25.355Z,77.27
2022-12-31T17:55:54.508Z,77.60
2022-12-31T17:58:37.393Z,76.75
2022-12-31T18:01:07.877Z,77.03
2022-12-31T18:03:34.371Z,76.88
2022-12-31T18:06:01.151Z,76.94
2022-12-31T18:08:27.530Z,76.49
2022-12-31T18:10:54.572Z,75.54
2022-12-31T18:13:24.138Z,75.28
2022-12-31T18:15:51.281Z,75.32
2022-12-31T18:18:24.898Z,75.41
2022-12-31T18:20:58.560Z,75.49
2022-12-31T18:23:34.218Z,75.65
2022-12-31T18:26:00.558Z,75.19
2022-12-31T18:28:26.940Z,75.18
2022-12-31T18:30:53.292Z,75.21
2022-12-31T18:33:23.454Z,74.81
2022-12-31T18:38:37.132Z,74.36
2022-12-31T18:41:03.839Z,73.30
2022-12-31T18:43:30.157Z,73.37
2022-12-31T18:45:56.543Z,72.77
2022-12-31T18:48:23.471Z,72.71
2022-12-31T18:50:50.436Z,72.19
2022-12-31T18:53:22.901Z,73.15
2022-12-31T18:55:55.193Z,72.79
2022-12-31T18:58:22.465Z,71.61
2022-12-31T19:00:50.311Z,71.98
2022-12-31T19:03:19.418Z,71.30
2022-12-31T19:05:49.564Z,71.02
2022-12-31T19:08:20.230Z,71.25
2022-12-31T19:10:47.641Z,71.02
2022-12-31T19:13:15.521Z,70.70
2022-12-31T19:15:47.633Z,70.74
2022-12-31T19:18:13.983Z,70.09
2022-12-31T19:20:41.001Z,70.03
2022-12-31T19:23:16.276Z,69.65
2022-12-31T19:25:42.595Z,69.91
2022-12-31T19:28:16.304Z,69.64
2022-12-31T19:30:43.060Z,70.27
2022-12-31T19:33:09.390Z,69.79
2022-12-31T19:35:35.750Z,69.59
2022-12-31T19:38:02.484Z,69.91
2022-12-31T19:40:30.686Z,69.34
2022-12-31T19:42:57.725Z,69.63
2022-12-31T19:45:28.565Z,69.77
2022-12-31T19:47:56.707Z,69.19
2022-12-31T19:50:25.481Z,69.28
2022-12-31T19:52:54.944Z,69.27
2022-12-31T19:55:22.458Z,68.92
2022-12-31T19:57:49.826Z,68.97
2022-12-31T20:00:18.248Z,69.02
2022-12-31T20:02:47.106Z,69.72
2022-12-31T20:05:15.444Z,69.11
2022-12-31T20:07:41.816Z,69.36
2022-12-31T20:10:08.663Z,69.08
2022-12-31T20:12:40.570Z,69.27
2022-12-31T20:15:11.008Z,68.55
2022-12-31T20:17:37.434Z,69.17
2022-12-31T20:20:05.217Z,69.08
2022-12-31T20:22:31.698Z,69.00
2022-12-31T20:24:58.213Z,68.99
2022-12-31T20:27:24.633Z,68.46
2022-12-31T20:29:50.975Z,69.34
2022-12-31T20:32:17.291Z,68.10
2022-12-31T20:34:43.602Z,67.85
2022-12-31T20:37:09.937Z,68.36
2022-12-31T20:39:37.485Z,68.12
2022-12-31T20:42:04.564Z,68.05
2022-12-31T20:44:31.053Z,67.29
2022-12-31T20:46:57.379Z,67.39
2022-12-31T20:49:37.550Z,67.25
2022-12-31T20:52:09.998Z,68.22
2022-12-31T20:54:37.382Z,67.39
2022-12-31T20:57:03.832Z,67.81
2022-12-31T20:59:30.196Z,67.50
2022-12-31T21:02:20.495Z,67.69
2022-12-31T21:04:45.210Z,67.67
2022-12-31T21:07:11.751Z,67.84
2022-12-31T21:09:38.119Z,67.49
2022-12-31T21:12:23.025Z,66.78
2022-12-31T21:14:49.333Z,66.63
2022-12-31T21:17:15.657Z,66.47
2022-12-31T21:19:42.002Z,66.92
2022-12-31T21:22:08.316Z,66.99
2022-12-31T21:24:34.619Z,66.80
2022-12-31T21:27:00.969Z,67.83
2022-12-31T21:29:32.644Z,66.93
2022-12-31T21:32:00.814Z,67.52
2022-12-31T21:34:27.160Z,67.84
2022-12-31T21:36:53.486Z,67.31
2022-12-31T21:39:19.821Z,67.49
2022-12-31T21:41:52.107Z,68.23
2022-12-31T21:44:23.900Z,68.14
2022-12-31T21:47:33.285Z,67.66
2022-12-31T21:49:41.922Z,67.96
2022-12-31T21:52:26.236Z,67.64
2022-12-31T21:55:16.297Z,67.61
2022-12-31T21:58:15.545Z,67.94
2022-12-31T22:00:49.470Z,67.38
2022-12-31T22:03:24.898Z,67.36
2022-12-31T22:06:12.425Z,67.80
2022-12-31T22:08:45.632Z,68.31
2022-12-31T22:11:12.391Z,68.32
2022-12-31T22:13:39.508Z,67.04
2022-12-31T22:16:07.120Z,66.83
2022-12-31T22:18:38.495Z,66.69
2022-12-31T22:21:18.221Z,67.32
2022-12-31T22:23:47.494Z,66.62
2022-12-31T22:26:15.695Z,65.94
2022-12-31T22:28:43.328Z,66.80
2022-12-31T22:31:14.139Z,67.05
2022-12-31T22:33:40.766Z,66.81
2022-12-31T22:36:11.466Z,67.30
2022-12-31T22:38:37.897Z,67.19
2022-12-31T22:41:09.024Z,67.42
2022-12-31T22:43:38.662Z,67.39
2022-12-31T22:46:12.290Z,66.83
2022-12-31T22:48:39.460Z,66.84
2022-12-31T22:51:07.006Z,66.60
2022-12-31T22:53:33.574Z,65.75
2022-12-31T22:56:00.128Z,65.93
2022-12-31T22:58:26.571Z,66.28
2022-12-31T23:00:53.565Z,66.22
2022-12-31T23:03:20.235Z,66.38
2022-12-31T23:05:53.872Z,66.36
2022-12-31T23:08:23.554Z,65.38
2022-12-31T23:11:01.459Z,66.02
2022-12-31T23:13:51.081Z,66.63
2022-12-31T23:16:36.725Z,66.35
2022-12-31T23:19:21.915Z,65.50
2022-12-31T23:22:06.490Z,65.40
2022-12-31T23:24:32.828Z,65.87
2022-12-31T23:26:59.195Z,66.78
2022-12-31T23:29:25.921Z,66.65
2022-12-31T23:31:52.858Z,66.31
2022-12-31T23:34:19.515Z,66.56
2022-12-31T23:36:45.911Z,66.37
2022-12-31T23:39:13.397Z,66.36
2022-12-31T23:41:39.878Z,66.30
2022-12-31T23:44:06.761Z,65.98
2022-12-31T23:46:33.182Z,66.94
2022-12-31T23:48:59.633Z,66.93
2022-12-31T23:51:26.003Z,66.96
2022-12-31T23:53:52.337Z,66.67
2022-12-31T23:56:23.611Z,66.13
2022-12-31T23:58:57.462Z,66.08
